sensor_id;sensor_type;location;lat;lon;timestamp;P1;durP1;ratioP1;P2;durP2;ratioP2
22634;SDS011;11484;50.858;4.384;2024-03-22T00:01:52;39.83;;;23.17;;
22634;SDS011;11484;50.858;4.384;2024-03-22T00:04:18;37.97;;;22.45;;
22634;SDS011;11484;50.858;4.384;2024-03-22T00:06:45;36.88;;;22.40;;
22634;SDS011;11484;50.858;4.384;2024-03-22T00:09:13;35.60;;;22.23;;
22634;SDS011;11484;50.858;4.384;2024-03-22T00:11:39;35.20;;;22.17;;
22634;SDS011;11484;50.858;4.384;2024-03-22T00:14:06;36.22;;;21.30;;
22634;SDS011;11484;50.858;4.384;2024-03-22T00:16:33;35.05;;;20.90;;
22634;SDS011;11484;50.858;4.384;2024-03-22T00:18:59;30.98;;;19.67;;
22634;SDS011;11484;50.858;4.384;2024-03-22T00:21:24;32.58;;;19.75;;
22634;SDS011;11484;50.858;4.384;2024-03-22T00:23:50;34.97;;;21.48;;
22634;SDS011;11484;50.858;4.384;2024-03-22T00:26:16;35.25;;;21.55;;
22634;SDS011;11484;50.858;4.384;2024-03-22T00:28:42;33.03;;;20.52;;
22634;SDS011;11484;50.858;4.384;2024-03-22T00:31:08;34.75;;;20.52;;
22634;SDS011;11484;50.858;4.384;2024-03-22T00:33:33;34.58;;;20.85;;
22634;SDS011;11484;50.858;4.384;2024-03-22T00:35:59;34.60;;;21.55;;
22634;SDS011;11484;50.858;4.384;2024-03-22T00:38:25;34.13;;;20.38;;
22634;SDS011;11484;50.858;4.384;2024-03-22T00:40:51;35.33;;;22.05;;
22634;SDS011;11484;50.858;4.384;2024-03-22T00:43:17;35.78;;;21.60;;
22634;SDS011;11484;50.858;4.384;2024-03-22T00:45:42;38.42;;;22.33;;
22634;SDS011;11484;50.858;4.384;2024-03-22T00:48:08;39.35;;;22.90;;
22634;SDS011;11484;50.858;4.384;2024-03-22T00:50:34;39.25;;;24.20;;
22634;SDS011;11484;50.858;4.384;2024-03-22T00:52:59;34.40;;;22.65;;
22634;SDS011;11484;50.858;4.384;2024-03-22T00:55:27;36.08;;;21.88;;
22634;SDS011;11484;50.858;4.384;2024-03-22T00:57:53;37.85;;;23.08;;
22634;SDS011;11484;50.858;4.384;2024-03-22T01:00:18;36.10;;;23.20;;
22634;SDS011;11484;50.858;4.384;2024-03-22T01:02:44;34.60;;;22.65;;
22634;SDS011;11484;50.858;4.384;2024-03-22T01:05:10;38.85;;;22.77;;
22634;SDS011;11484;50.858;4.384;2024-03-22T01:07:36;34.28;;;22.73;;
22634;SDS011;11484;50.858;4.384;2024-03-22T01:10:03;41.17;;;23.40;;
22634;SDS011;11484;50.858;4.384;2024-03-22T01:12:29;38.95;;;23.17;;
22634;SDS011;11484;50.858;4.384;2024-03-22T01:14:56;37.80;;;23.70;;
22634;SDS011;11484;50.858;4.384;2024-03-22T01:17:22;35.70;;;22.00;;
22634;SDS011;11484;50.858;4.384;2024-03-22T01:19:47;37.58;;;23.70;;
22634;SDS011;11484;50.858;4.384;2024-03-22T01:22:13;35.78;;;22.67;;
22634;SDS011;11484;50.858;4.384;2024-03-22T01:24:39;36.28;;;22.23;;
22634;SDS011;11484;50.858;4.384;2024-03-22T01:27:04;35.67;;;22.48;;
22634;SDS011;11484;50.858;4.384;2024-03-22T01:29:30;35.78;;;22.25;;
22634;SDS011;11484;50.858;4.384;2024-03-22T01:31:57;39.03;;;23.17;;
22634;SDS011;11484;50.858;4.384;2024-03-22T01:34:23;37.90;;;23.02;;
22634;SDS011;11484;50.858;4.384;2024-03-22T01:36:49;37.08;;;23.08;;
22634;SDS011;11484;50.858;4.384;2024-03-22T01:39:16;36.97;;;24.20;;
22634;SDS011;11484;50.858;4.384;2024-03-22T01:41:43;38.13;;;23.58;;
22634;SDS011;11484;50.858;4.384;2024-03-22T01:44:08;37.55;;;23.40;;
22634;SDS011;11484;50.858;4.384;2024-03-22T01:46:34;40.20;;;23.60;;
22634;SDS011;11484;50.858;4.384;2024-03-22T01:49:00;40.45;;;25.35;;
22634;SDS011;11484;50.858;4.384;2024-03-22T01:51:27;37.08;;;24.25;;
22634;SDS011;11484;50.858;4.384;2024-03-22T01:53:53;39.13;;;23.10;;
22634;SDS011;11484;50.858;4.384;2024-03-22T01:56:20;38.38;;;24.15;;
22634;SDS011;11484;50.858;4.384;2024-03-22T01:58:46;35.95;;;22.40;;
22634;SDS011;11484;50.858;4.384;2024-03-22T02:01:13;42.40;;;24.23;;
22634;SDS011;11484;50.858;4.384;2024-03-22T02:03:39;38.65;;;22.83;;
22634;SDS011;11484;50.858;4.384;2024-03-22T02:06:05;37.33;;;22.20;;
22634;SDS011;11484;50.858;4.384;2024-03-22T02:08:31;39.38;;;22.45;;
22634;SDS011;11484;50.858;4.384;2024-03-22T02:10:56;36.50;;;22.25;;
22634;SDS011;11484;50.858;4.384;2024-03-22T02:13:22;40.03;;;23.95;;
22634;SDS011;11484;50.858;4.384;2024-03-22T02:15:48;39.55;;;23.20;;
22634;SDS011;11484;50.858;4.384;2024-03-22T02:18:13;38.55;;;22.35;;
22634;SDS011;11484;50.858;4.384;2024-03-22T02:20:39;36.72;;;22.30;;
22634;SDS011;11484;50.858;4.384;2024-03-22T02:23:05;37.40;;;22.10;;
22634;SDS011;11484;50.858;4.384;2024-03-22T02:25:30;35.63;;;22.80;;
22634;SDS011;11484;50.858;4.384;2024-03-22T02:27:56;35.65;;;22.48;;
22634;SDS011;11484;50.858;4.384;2024-03-22T02:30:21;36.50;;;22.60;;
22634;SDS011;11484;50.858;4.384;2024-03-22T02:32:47;35.70;;;21.25;;
22634;SDS011;11484;50.858;4.384;2024-03-22T02:35:13;34.03;;;21.25;;
22634;SDS011;11484;50.858;4.384;2024-03-22T02:37:38;35.13;;;21.40;;
22634;SDS011;11484;50.858;4.384;2024-03-22T02:40:04;36.92;;;20.95;;
22634;SDS011;11484;50.858;4.384;2024-03-22T02:42:31;37.40;;;21.73;;
22634;SDS011;11484;50.858;4.384;2024-03-22T02:44:56;31.17;;;20.75;;
22634;SDS011;11484;50.858;4.384;2024-03-22T02:47:22;32.13;;;20.45;;
22634;SDS011;11484;50.858;4.384;2024-03-22T02:49:47;34.60;;;21.15;;
22634;SDS011;11484;50.858;4.384;2024-03-22T02:52:13;36.42;;;20.73;;
22634;SDS011;11484;50.858;4.384;2024-03-22T02:54:39;31.05;;;20.85;;
22634;SDS011;11484;50.858;4.384;2024-03-22T02:57:04;32.22;;;20.45;;
22634;SDS011;11484;50.858;4.384;2024-03-22T02:59:30;32.25;;;20.58;;
22634;SDS011;11484;50.858;4.384;2024-03-22T03:01:56;36.88;;;21.20;;
22634;SDS011;11484;50.858;4.384;2024-03-22T03:04:21;31.20;;;21.05;;
22634;SDS011;11484;50.858;4.384;2024-03-22T03:06:47;35.35;;;20.95;;
22634;SDS011;11484;50.858;4.384;2024-03-22T03:09:13;36.70;;;21.73;;
22634;SDS011;11484;50.858;4.384;2024-03-22T03:11:39;35.53;;;20.52;;
22634;SDS011;11484;50.858;4.384;2024-03-22T03:14:05;33.88;;;20.23;;
22634;SDS011;11484;50.858;4.384;2024-03-22T03:16:31;33.72;;;20.60;;
22634;SDS011;11484;50.858;4.384;2024-03-22T03:18:56;31.85;;;20.90;;
22634;SDS011;11484;50.858;4.384;2024-03-22T03:21:22;33.42;;;19.92;;
22634;SDS011;11484;50.858;4.384;2024-03-22T03:23:47;31.92;;;19.58;;
22634;SDS011;11484;50.858;4.384;2024-03-22T03:26:13;33.38;;;20.08;;
22634;SDS011;11484;50.858;4.384;2024-03-22T03:28:39;32.40;;;19.70;;
22634;SDS011;11484;50.858;4.384;2024-03-22T03:31:04;32.63;;;19.38;;
22634;SDS011;11484;50.858;4.384;2024-03-22T03:33:30;33.33;;;19.38;;
22634;SDS011;11484;50.858;4.384;2024-03-22T03:35:56;33.55;;;19.20;;
22634;SDS011;11484;50.858;4.384;2024-03-22T03:38:22;31.92;;;18.40;;
22634;SDS011;11484;50.858;4.384;2024-03-22T03:40:47;30.88;;;18.88;;
22634;SDS011;11484;50.858;4.384;2024-03-22T03:43:13;29.00;;;17.80;;
22634;SDS011;11484;50.858;4.384;2024-03-22T03:45:39;28.83;;;17.05;;
22634;SDS011;11484;50.858;4.384;2024-03-22T03:48:05;31.98;;;17.35;;
22634;SDS011;11484;50.858;4.384;2024-03-22T03:50:31;28.83;;;17.13;;
22634;SDS011;11484;50.858;4.384;2024-03-22T03:52:56;28.92;;;16.38;;
22634;SDS011;11484;50.858;4.384;2024-03-22T03:55:22;30.90;;;17.13;;
22634;SDS011;11484;50.858;4.384;2024-03-22T03:57:49;31.27;;;17.05;;
22634;SDS011;11484;50.858;4.384;2024-03-22T04:00:15;26.67;;;15.93;;
22634;SDS011;11484;50.858;4.384;2024-03-22T04:02:42;26.33;;;15.90;;
22634;SDS011;11484;50.858;4.384;2024-03-22T04:05:08;23.95;;;15.52;;
22634;SDS011;11484;50.858;4.384;2024-03-22T04:07:34;26.33;;;16.58;;
22634;SDS011;11484;50.858;4.384;2024-03-22T04:09:59;27.13;;;15.95;;
22634;SDS011;11484;50.858;4.384;2024-03-22T04:12:26;26.52;;;15.38;;
22634;SDS011;11484;50.858;4.384;2024-03-22T04:14:52;27.13;;;15.25;;
22634;SDS011;11484;50.858;4.384;2024-03-22T04:17:17;26.35;;;14.85;;
22634;SDS011;11484;50.858;4.384;2024-03-22T04:19:43;24.67;;;15.25;;
22634;SDS011;11484;50.858;4.384;2024-03-22T04:22:09;27.17;;;14.80;;
22634;SDS011;11484;50.858;4.384;2024-03-22T04:24:34;26.55;;;15.10;;
22634;SDS011;11484;50.858;4.384;2024-03-22T04:27:00;26.50;;;15.15;;
22634;SDS011;11484;50.858;4.384;2024-03-22T04:29:26;24.50;;;14.50;;
22634;SDS011;11484;50.858;4.384;2024-03-22T04:31:51;23.58;;;15.15;;
22634;SDS011;11484;50.858;4.384;2024-03-22T04:34:17;23.65;;;14.77;;
22634;SDS011;11484;50.858;4.384;2024-03-22T04:36:42;24.38;;;14.40;;
22634;SDS011;11484;50.858;4.384;2024-03-22T04:39:09;25.33;;;14.82;;
22634;SDS011;11484;50.858;4.384;2024-03-22T04:41:37;25.27;;;14.55;;
22634;SDS011;11484;50.858;4.384;2024-03-22T04:44:03;23.33;;;13.50;;
22634;SDS011;11484;50.858;4.384;2024-03-22T04:46:29;22.95;;;14.63;;
22634;SDS011;11484;50.858;4.384;2024-03-22T04:48:54;23.05;;;14.07;;
22634;SDS011;11484;50.858;4.384;2024-03-22T04:51:20;26.38;;;13.85;;
22634;SDS011;11484;50.858;4.384;2024-03-22T04:53:46;27.42;;;14.05;;
22634;SDS011;11484;50.858;4.384;2024-03-22T04:56:11;24.90;;;14.07;;
22634;SDS011;11484;50.858;4.384;2024-03-22T04:58:37;22.58;;;13.02;;
22634;SDS011;11484;50.858;4.384;2024-03-22T05:01:02;23.50;;;13.63;;
22634;SDS011;11484;50.858;4.384;2024-03-22T05:03:28;23.77;;;13.13;;
22634;SDS011;11484;50.858;4.384;2024-03-22T05:05:54;25.00;;;13.98;;
22634;SDS011;11484;50.858;4.384;2024-03-22T05:08:21;23.67;;;13.55;;
22634;SDS011;11484;50.858;4.384;2024-03-22T05:10:47;22.52;;;12.95;;
22634;SDS011;11484;50.858;4.384;2024-03-22T05:13:12;19.88;;;12.15;;
22634;SDS011;11484;50.858;4.384;2024-03-22T05:15:38;19.20;;;12.60;;
22634;SDS011;11484;50.858;4.384;2024-03-22T05:18:04;24.45;;;13.20;;
22634;SDS011;11484;50.858;4.384;2024-03-22T05:20:29;25.77;;;14.85;;
22634;SDS011;11484;50.858;4.384;2024-03-22T05:22:55;25.33;;;13.20;;
22634;SDS011;11484;50.858;4.384;2024-03-22T05:25:21;23.27;;;14.13;;
22634;SDS011;11484;50.858;4.384;2024-03-22T05:27:46;25.20;;;13.32;;
22634;SDS011;11484;50.858;4.384;2024-03-22T05:30:12;22.70;;;13.32;;
22634;SDS011;11484;50.858;4.384;2024-03-22T05:32:39;23.08;;;13.07;;
22634;SDS011;11484;50.858;4.384;2024-03-22T05:35:07;22.10;;;12.85;;
22634;SDS011;11484;50.858;4.384;2024-03-22T05:37:33;21.67;;;12.52;;
22634;SDS011;11484;50.858;4.384;2024-03-22T05:40:00;22.45;;;13.32;;
22634;SDS011;11484;50.858;4.384;2024-03-22T05:42:26;21.25;;;13.23;;
22634;SDS011;11484;50.858;4.384;2024-03-22T05:44:52;26.08;;;14.30;;
22634;SDS011;11484;50.858;4.384;2024-03-22T05:47:18;22.23;;;12.50;;
22634;SDS011;11484;50.858;4.384;2024-03-22T05:49:44;21.67;;;12.95;;
22634;SDS011;11484;50.858;4.384;2024-03-22T05:52:10;19.30;;;12.00;;
22634;SDS011;11484;50.858;4.384;2024-03-22T05:54:38;23.02;;;13.45;;
22634;SDS011;11484;50.858;4.384;2024-03-22T05:57:04;22.58;;;12.90;;
22634;SDS011;11484;50.858;4.384;2024-03-22T05:59:32;20.60;;;13.05;;
22634;SDS011;11484;50.858;4.384;2024-03-22T06:01:58;22.05;;;12.77;;
22634;SDS011;11484;50.858;4.384;2024-03-22T06:04:24;21.35;;;12.63;;
22634;SDS011;11484;50.858;4.384;2024-03-22T06:06:50;23.67;;;12.48;;
22634;SDS011;11484;50.858;4.384;2024-03-22T06:09:16;23.75;;;13.25;;
22634;SDS011;11484;50.858;4.384;2024-03-22T06:11:49;22.40;;;13.48;;
22634;SDS011;11484;50.858;4.384;2024-03-22T06:14:15;23.50;;;12.90;;
22634;SDS011;11484;50.858;4.384;2024-03-22T06:16:41;24.50;;;14.50;;
22634;SDS011;11484;50.858;4.384;2024-03-22T06:19:07;22.83;;;13.57;;
22634;SDS011;11484;50.858;4.384;2024-03-22T06:21:32;24.23;;;13.95;;
22634;SDS011;11484;50.858;4.384;2024-03-22T06:23:58;26.17;;;13.55;;
22634;SDS011;11484;50.858;4.384;2024-03-22T06:26:24;25.52;;;14.15;;
22634;SDS011;11484;50.858;4.384;2024-03-22T06:28:49;26.17;;;15.90;;
22634;SDS011;11484;50.858;4.384;2024-03-22T06:31:15;24.15;;;13.30;;
22634;SDS011;11484;50.858;4.384;2024-03-22T06:33:41;23.98;;;14.23;;
22634;SDS011;11484;50.858;4.384;2024-03-22T06:36:08;25.98;;;14.27;;
22634;SDS011;11484;50.858;4.384;2024-03-22T06:38:33;26.17;;;13.75;;
22634;SDS011;11484;50.858;4.384;2024-03-22T06:40:59;27.60;;;14.18;;
22634;SDS011;11484;50.858;4.384;2024-03-22T06:43:25;25.65;;;14.48;;
22634;SDS011;11484;50.858;4.384;2024-03-22T06:45:51;29.10;;;14.35;;
22634;SDS011;11484;50.858;4.384;2024-03-22T06:48:16;24.75;;;13.77;;
22634;SDS011;11484;50.858;4.384;2024-03-22T06:50:42;25.48;;;13.45;;
22634;SDS011;11484;50.858;4.384;2024-03-22T06:53:08;27.92;;;13.48;;
22634;SDS011;11484;50.858;4.384;2024-03-22T06:55:37;24.52;;;13.27;;
22634;SDS011;11484;50.858;4.384;2024-03-22T06:58:03;25.50;;;13.68;;
22634;SDS011;11484;50.858;4.384;2024-03-22T07:00:29;21.40;;;12.43;;
22634;SDS011;11484;50.858;4.384;2024-03-22T07:02:55;26.10;;;12.68;;
22634;SDS011;11484;50.858;4.384;2024-03-22T07:05:21;23.15;;;12.00;;
22634;SDS011;11484;50.858;4.384;2024-03-22T07:07:47;21.40;;;11.48;;
22634;SDS011;11484;50.858;4.384;2024-03-22T07:10:14;28.55;;;16.77;;
22634;SDS011;11484;50.858;4.384;2024-03-22T07:12:40;19.85;;;11.77;;
22634;SDS011;11484;50.858;4.384;2024-03-22T07:15:06;21.60;;;11.50;;
22634;SDS011;11484;50.858;4.384;2024-03-22T07:17:33;21.95;;;11.52;;
22634;SDS011;11484;50.858;4.384;2024-03-22T07:19:59;23.95;;;11.80;;
22634;SDS011;11484;50.858;4.384;2024-03-22T07:22:25;21.63;;;11.57;;
22634;SDS011;11484;50.858;4.384;2024-03-22T07:24:50;20.73;;;11.85;;
22634;SDS011;11484;50.858;4.384;2024-03-22T07:27:16;21.27;;;11.88;;
22634;SDS011;11484;50.858;4.384;2024-03-22T07:29:42;22.10;;;10.95;;
22634;SDS011;11484;50.858;4.384;2024-03-22T07:32:09;19.98;;;10.50;;
22634;SDS011;11484;50.858;4.384;2024-03-22T07:34:35;22.35;;;12.75;;
22634;SDS011;11484;50.858;4.384;2024-03-22T07:37:01;23.80;;;12.65;;
22634;SDS011;11484;50.858;4.384;2024-03-22T07:39:29;26.00;;;13.00;;
22634;SDS011;11484;50.858;4.384;2024-03-22T07:41:55;20.67;;;11.38;;
22634;SDS011;11484;50.858;4.384;2024-03-22T07:44:21;23.58;;;11.98;;
22634;SDS011;11484;50.858;4.384;2024-03-22T07:46:49;20.23;;;11.40;;
22634;SDS011;11484;50.858;4.384;2024-03-22T07:49:14;18.88;;;10.13;;
22634;SDS011;11484;50.858;4.384;2024-03-22T07:51:40;18.67;;;10.73;;
22634;SDS011;11484;50.858;4.384;2024-03-22T07:54:06;16.55;;;10.13;;
22634;SDS011;11484;50.858;4.384;2024-03-22T07:56:32;16.38;;;9.35;;
22634;SDS011;11484;50.858;4.384;2024-03-22T07:58:57;15.85;;;9.27;;
22634;SDS011;11484;50.858;4.384;2024-03-22T08:01:23;19.38;;;9.75;;
22634;SDS011;11484;50.858;4.384;2024-03-22T08:03:50;15.05;;;9.07;;
22634;SDS011;11484;50.858;4.384;2024-03-22T08:06:16;17.23;;;9.20;;
22634;SDS011;11484;50.858;4.384;2024-03-22T08:08:42;15.77;;;10.05;;
22634;SDS011;11484;50.858;4.384;2024-03-22T08:11:08;16.05;;;9.90;;
22634;SDS011;11484;50.858;4.384;2024-03-22T08:13:34;15.75;;;9.73;;
22634;SDS011;11484;50.858;4.384;2024-03-22T08:16:00;16.35;;;8.50;;
22634;SDS011;11484;50.858;4.384;2024-03-22T08:18:25;14.30;;;8.48;;
22634;SDS011;11484;50.858;4.384;2024-03-22T08:20:51;16.77;;;9.25;;
22634;SDS011;11484;50.858;4.384;2024-03-22T08:23:17;16.88;;;8.98;;
22634;SDS011;11484;50.858;4.384;2024-03-22T08:25:45;16.60;;;9.88;;
22634;SDS011;11484;50.858;4.384;2024-03-22T08:28:11;14.75;;;9.80;;
22634;SDS011;11484;50.858;4.384;2024-03-22T08:30:38;16.23;;;10.65;;
22634;SDS011;11484;50.858;4.384;2024-03-22T08:33:04;17.98;;;11.00;;
22634;SDS011;11484;50.858;4.384;2024-03-22T08:35:30;20.83;;;11.40;;
22634;SDS011;11484;50.858;4.384;2024-03-22T08:37:56;19.20;;;12.13;;
22634;SDS011;11484;50.858;4.384;2024-03-22T08:40:22;23.15;;;13.60;;
22634;SDS011;11484;50.858;4.384;2024-03-22T08:42:48;23.13;;;14.82;;
22634;SDS011;11484;50.858;4.384;2024-03-22T08:45:14;25.73;;;14.60;;
22634;SDS011;11484;50.858;4.384;2024-03-22T08:47:41;22.27;;;13.82;;
22634;SDS011;11484;50.858;4.384;2024-03-22T08:50:07;28.23;;;15.10;;
22634;SDS011;11484;50.858;4.384;2024-03-22T08:52:35;24.55;;;14.75;;
22634;SDS011;11484;50.858;4.384;2024-03-22T08:55:01;23.48;;;14.63;;
22634;SDS011;11484;50.858;4.384;2024-03-22T08:57:26;22.48;;;13.88;;
22634;SDS011;11484;50.858;4.384;2024-03-22T08:59:52;22.33;;;13.65;;
22634;SDS011;11484;50.858;4.384;2024-03-22T09:02:18;25.13;;;13.45;;
22634;SDS011;11484;50.858;4.384;2024-03-22T09:04:43;23.80;;;13.38;;
22634;SDS011;11484;50.858;4.384;2024-03-22T09:07:09;19.02;;;12.82;;
22634;SDS011;11484;50.858;4.384;2024-03-22T09:09:35;19.88;;;12.95;;
22634;SDS011;11484;50.858;4.384;2024-03-22T09:12:01;21.80;;;13.40;;
22634;SDS011;11484;50.858;4.384;2024-03-22T09:14:27;21.42;;;13.57;;
22634;SDS011;11484;50.858;4.384;2024-03-22T09:16:53;22.17;;;13.48;;
22634;SDS011;11484;50.858;4.384;2024-03-22T09:19:18;19.05;;;12.80;;
22634;SDS011;11484;50.858;4.384;2024-03-22T09:21:44;20.05;;;12.55;;
22634;SDS011;11484;50.858;4.384;2024-03-22T09:24:10;20.98;;;12.65;;
22634;SDS011;11484;50.858;4.384;2024-03-22T09:26:35;19.52;;;13.05;;
22634;SDS011;11484;50.858;4.384;2024-03-22T09:29:01;21.50;;;13.35;;
22634;SDS011;11484;50.858;4.384;2024-03-22T09:31:28;21.77;;;12.85;;
22634;SDS011;11484;50.858;4.384;2024-03-22T09:33:55;33.38;;;18.13;;
22634;SDS011;11484;50.858;4.384;2024-03-22T09:36:21;21.40;;;13.80;;
22634;SDS011;11484;50.858;4.384;2024-03-22T09:38:47;20.13;;;13.57;;
22634;SDS011;11484;50.858;4.384;2024-03-22T09:41:13;23.15;;;14.00;;
22634;SDS011;11484;50.858;4.384;2024-03-22T09:43:40;18.92;;;12.40;;
22634;SDS011;11484;50.858;4.384;2024-03-22T09:46:09;24.55;;;13.07;;
22634;SDS011;11484;50.858;4.384;2024-03-22T09:48:36;19.23;;;12.65;;
22634;SDS011;11484;50.858;4.384;2024-03-22T09:51:03;22.55;;;13.45;;
22634;SDS011;11484;50.858;4.384;2024-03-22T09:53:29;22.92;;;13.73;;
22634;SDS011;11484;50.858;4.384;2024-03-22T09:55:56;22.23;;;12.70;;
22634;SDS011;11484;50.858;4.384;2024-03-22T09:58:26;21.58;;;13.48;;
22634;SDS011;11484;50.858;4.384;2024-03-22T10:00:53;23.90;;;13.63;;
22634;SDS011;11484;50.858;4.384;2024-03-22T10:03:20;21.63;;;12.52;;
22634;SDS011;11484;50.858;4.384;2024-03-22T10:05:46;20.45;;;12.88;;
22634;SDS011;11484;50.858;4.384;2024-03-22T10:08:12;21.27;;;12.60;;
22634;SDS011;11484;50.858;4.384;2024-03-22T10:10:38;21.13;;;12.88;;
22634;SDS011;11484;50.858;4.384;2024-03-22T10:13:04;18.98;;;12.38;;
22634;SDS011;11484;50.858;4.384;2024-03-22T10:15:32;19.38;;;12.25;;
22634;SDS011;11484;50.858;4.384;2024-03-22T10:17:57;21.70;;;12.88;;
22634;SDS011;11484;50.858;4.384;2024-03-22T10:20:23;20.77;;;13.45;;
22634;SDS011;11484;50.858;4.384;2024-03-22T10:22:54;25.15;;;13.25;;
22634;SDS011;11484;50.858;4.384;2024-03-22T10:25:23;20.55;;;12.70;;
22634;SDS011;11484;50.858;4.384;2024-03-22T10:27:48;19.33;;;12.38;;
22634;SDS011;11484;50.858;4.384;2024-03-22T10:30:15;24.60;;;13.45;;
22634;SDS011;11484;50.858;4.384;2024-03-22T10:32:42;26.20;;;13.20;;
22634;SDS011;11484;50.858;4.384;2024-03-22T10:35:13;19.23;;;12.75;;
22634;SDS011;11484;50.858;4.384;2024-03-22T10:37:39;23.60;;;12.88;;
22634;SDS011;11484;50.858;4.384;2024-03-22T10:40:05;19.48;;;12.88;;
22634;SDS011;11484;50.858;4.384;2024-03-22T10:42:35;18.20;;;12.73;;
22634;SDS011;11484;50.858;4.384;2024-03-22T10:45:02;21.23;;;12.32;;
22634;SDS011;11484;50.858;4.384;2024-03-22T10:47:30;18.02;;;12.13;;
22634;SDS011;11484;50.858;4.384;2024-03-22T10:50:06;18.60;;;12.30;;
22634;SDS011;11484;50.858;4.384;2024-03-22T10:52:45;17.50;;;11.88;;
22634;SDS011;11484;50.858;4.384;2024-03-22T10:55:18;18.52;;;11.82;;
22634;SDS011;11484;50.858;4.384;2024-03-22T10:57:49;25.55;;;13.40;;
22634;SDS011;11484;50.858;4.384;2024-03-22T11:00:15;18.65;;;11.70;;
22634;SDS011;11484;50.858;4.384;2024-03-22T11:02:53;19.27;;;12.55;;
22634;SDS011;11484;50.858;4.384;2024-03-22T11:05:19;21.00;;;12.82;;
22634;SDS011;11484;50.858;4.384;2024-03-22T11:07:45;23.40;;;12.80;;
22634;SDS011;11484;50.858;4.384;2024-03-22T11:10:13;20.42;;;12.15;;
22634;SDS011;11484;50.858;4.384;2024-03-22T11:12:41;17.80;;;12.50;;
22634;SDS011;11484;50.858;4.384;2024-03-22T11:15:09;20.35;;;13.10;;
22634;SDS011;11484;50.858;4.384;2024-03-22T11:17:37;17.42;;;12.85;;
22634;SDS011;11484;50.858;4.384;2024-03-22T11:20:03;19.35;;;13.10;;
22634;SDS011;11484;50.858;4.384;2024-03-22T11:22:31;20.17;;;12.98;;
22634;SDS011;11484;50.858;4.384;2024-03-22T11:24:56;23.10;;;14.18;;
22634;SDS011;11484;50.858;4.384;2024-03-22T11:27:23;19.88;;;13.48;;
22634;SDS011;11484;50.858;4.384;2024-03-22T11:29:48;17.98;;;12.18;;
22634;SDS011;11484;50.858;4.384;2024-03-22T11:32:16;17.52;;;11.68;;
22634;SDS011;11484;50.858;4.384;2024-03-22T11:34:42;17.90;;;11.90;;
22634;SDS011;11484;50.858;4.384;2024-03-22T11:37:09;18.65;;;11.85;;
22634;SDS011;11484;50.858;4.384;2024-03-22T11:39:38;17.98;;;11.18;;
22634;SDS011;11484;50.858;4.384;2024-03-22T11:42:04;16.60;;;11.55;;
22634;SDS011;11484;50.858;4.384;2024-03-22T11:44:33;17.88;;;11.45;;
22634;SDS011;11484;50.858;4.384;2024-03-22T11:47:02;21.63;;;12.80;;
22634;SDS011;11484;50.858;4.384;2024-03-22T11:49:28;15.60;;;11.02;;
22634;SDS011;11484;50.858;4.384;2024-03-22T11:51:55;15.48;;;11.45;;
22634;SDS011;11484;50.858;4.384;2024-03-22T11:54:21;19.02;;;11.23;;
22634;SDS011;11484;50.858;4.384;2024-03-22T11:56:48;17.98;;;11.52;;
22634;SDS011;11484;50.858;4.384;2024-03-22T11:59:14;17.20;;;11.73;;
22634;SDS011;11484;50.858;4.384;2024-03-22T12:01:40;18.90;;;11.15;;
22634;SDS011;11484;50.858;4.384;2024-03-22T12:04:06;23.00;;;11.32;;
22634;SDS011;11484;50.858;4.384;2024-03-22T12:06:33;19.08;;;11.32;;
22634;SDS011;11484;50.858;4.384;2024-03-22T12:09:00;18.23;;;11.38;;
22634;SDS011;11484;50.858;4.384;2024-03-22T12:11:25;16.48;;;11.90;;
22634;SDS011;11484;50.858;4.384;2024-03-22T12:13:51;17.63;;;12.13;;
22634;SDS011;11484;50.858;4.384;2024-03-22T12:16:17;18.63;;;12.80;;
22634;SDS011;11484;50.858;4.384;2024-03-22T12:18:43;15.95;;;11.15;;
22634;SDS011;11484;50.858;4.384;2024-03-22T12:21:08;16.98;;;11.55;;
22634;SDS011;11484;50.858;4.384;2024-03-22T12:23:34;15.38;;;10.50;;
22634;SDS011;11484;50.858;4.384;2024-03-22T12:26:00;15.85;;;10.90;;
22634;SDS011;11484;50.858;4.384;2024-03-22T12:28:25;15.85;;;9.75;;
22634;SDS011;11484;50.858;4.384;2024-03-22T12:30:51;20.00;;;11.23;;
22634;SDS011;11484;50.858;4.384;2024-03-22T12:33:17;17.05;;;10.18;;
22634;SDS011;11484;50.858;4.384;2024-03-22T12:35:43;16.83;;;10.38;;
22634;SDS011;11484;50.858;4.384;2024-03-22T12:38:08;19.17;;;10.15;;
22634;SDS011;11484;50.858;4.384;2024-03-22T12:40:38;15.65;;;9.55;;
22634;SDS011;11484;50.858;4.384;2024-03-22T12:43:04;15.05;;;9.70;;
22634;SDS011;11484;50.858;4.384;2024-03-22T12:45:30;16.60;;;9.18;;
22634;SDS011;11484;50.858;4.384;2024-03-22T12:47:57;16.02;;;9.27;;
22634;SDS011;11484;50.858;4.384;2024-03-22T12:50:23;18.80;;;10.15;;
22634;SDS011;11484;50.858;4.384;2024-03-22T12:52:49;16.38;;;9.40;;
22634;SDS011;11484;50.858;4.384;2024-03-22T12:55:15;16.10;;;8.82;;
22634;SDS011;11484;50.858;4.384;2024-03-22T12:57:41;16.75;;;9.23;;
22634;SDS011;11484;50.858;4.384;2024-03-22T13:00:08;14.95;;;8.90;;
22634;SDS011;11484;50.858;4.384;2024-03-22T13:02:41;15.80;;;8.77;;
22634;SDS011;11484;50.858;4.384;2024-03-22T13:05:07;14.75;;;8.93;;
22634;SDS011;11484;50.858;4.384;2024-03-22T13:07:33;19.25;;;9.05;;
22634;SDS011;11484;50.858;4.384;2024-03-22T13:09:59;14.23;;;8.55;;
22634;SDS011;11484;50.858;4.384;2024-03-22T13:12:25;14.73;;;8.45;;
22634;SDS011;11484;50.858;4.384;2024-03-22T13:14:52;15.98;;;8.30;;
22634;SDS011;11484;50.858;4.384;2024-03-22T13:17:17;16.55;;;8.35;;
22634;SDS011;11484;50.858;4.384;2024-03-22T13:19:43;14.82;;;7.85;;
22634;SDS011;11484;50.858;4.384;2024-03-22T13:22:09;11.90;;;7.55;;
22634;SDS011;11484;50.858;4.384;2024-03-22T13:24:35;13.48;;;7.57;;
22634;SDS011;11484;50.858;4.384;2024-03-22T13:27:01;17.50;;;8.13;;
22634;SDS011;11484;50.858;4.384;2024-03-22T13:29:27;15.02;;;8.55;;
22634;SDS011;11484;50.858;4.384;2024-03-22T13:31:54;11.70;;;7.53;;
22634;SDS011;11484;50.858;4.384;2024-03-22T13:34:20;12.20;;;7.22;;
22634;SDS011;11484;50.858;4.384;2024-03-22T13:36:45;12.85;;;7.88;;
22634;SDS011;11484;50.858;4.384;2024-03-22T13:39:14;13.55;;;7.28;;
22634;SDS011;11484;50.858;4.384;2024-03-22T13:41:41;13.50;;;8.32;;
22634;SDS011;11484;50.858;4.384;2024-03-22T13:44:07;14.65;;;9.07;;
22634;SDS011;11484;50.858;4.384;2024-03-22T13:46:33;15.15;;;9.43;;
22634;SDS011;11484;50.858;4.384;2024-03-22T13:49:01;16.10;;;9.65;;
22634;SDS011;11484;50.858;4.384;2024-03-22T13:51:29;18.77;;;8.85;;
22634;SDS011;11484;50.858;4.384;2024-03-22T13:53:56;19.27;;;8.93;;
22634;SDS011;11484;50.858;4.384;2024-03-22T13:56:22;11.63;;;7.68;;
22634;SDS011;11484;50.858;4.384;2024-03-22T13:58:47;16.85;;;9.05;;
22634;SDS011;11484;50.858;4.384;2024-03-22T14:01:14;17.02;;;9.30;;
22634;SDS011;11484;50.858;4.384;2024-03-22T14:03:40;15.40;;;8.65;;
22634;SDS011;11484;50.858;4.384;2024-03-22T14:06:06;14.40;;;8.43;;
22634;SDS011;11484;50.858;4.384;2024-03-22T14:08:32;14.07;;;8.15;;
22634;SDS011;11484;50.858;4.384;2024-03-22T14:10:58;18.73;;;9.95;;
22634;SDS011;11484;50.858;4.384;2024-03-22T14:13:24;13.82;;;8.27;;
22634;SDS011;11484;50.858;4.384;2024-03-22T14:15:50;16.73;;;8.63;;
22634;SDS011;11484;50.858;4.384;2024-03-22T14:18:15;22.10;;;8.50;;